createdAt,value
2023-03-08T00:01:22.746Z,4.00
2023-03-08T00:03:58.355Z,3.10
2023-03-08T00:06:27.040Z,2.90
2023-03-08T00:08:59.285Z,2.40
2023-03-08T00:11:28.797Z,2.40
2023-03-08T00:13:57.888Z,2.80
2023-03-08T00:16:26.136Z,2.70
2023-03-08T00:18:54.455Z,4.50
2023-03-08T00:21:22.816Z,2.80
2023-03-08T00:23:54.838Z,1.90
2023-03-08T00:26:23.459Z,2.40
2023-03-08T00:28:53.144Z,2.10
2023-03-08T00:31:21.638Z,1.70
2023-03-08T00:33:54.124Z,1.60
2023-03-08T00:36:22.622Z,2.00
2023-03-08T00:38:51.700Z,2.80
2023-03-08T00:41:20.076Z,2.40
2023-03-08T00:43:48.768Z,2.20
2023-03-08T00:46:17.286Z,1.70
2023-03-08T00:48:46.742Z,2.60
2023-03-08T00:51:18.913Z,2.20
2023-03-08T00:53:48.838Z,2.50
2023-03-08T00:56:16.999Z,2.20
2023-03-08T00:58:45.171Z,2.00
2023-03-08T01:01:18.432Z,2.10
2023-03-08T01:03:49.006Z,1.70
2023-03-08T01:06:17.375Z,1.90
2023-03-08T01:08:46.048Z,2.00
2023-03-08T01:11:23.646Z,2.40
2023-03-08T01:13:52.981Z,2.30
2023-03-08T01:16:31.148Z,2.30
2023-03-08T01:19:01.570Z,2.20
2023-03-08T01:21:30.885Z,2.10
2023-03-08T01:23:59.249Z,2.40
2023-03-08T01:26:29.783Z,1.80
2023-03-08T01:28:58.568Z,2.00
2023-03-08T01:31:31.156Z,2.00
2023-03-08T01:34:01.053Z,2.00
2023-03-08T01:36:29.439Z,2.30
2023-03-08T01:39:00.551Z,2.30
2023-03-08T01:41:30.686Z,2.10
2023-03-08T01:43:59.069Z,1.70
2023-03-08T01:46:28.053Z,1.90
2023-03-08T01:49:18.445Z,1.40
2023-03-08T01:51:51.236Z,2.00
2023-03-08T01:54:24.013Z,1.70
2023-03-08T01:56:53.649Z,1.90
2023-03-08T01:59:23.025Z,1.70
2023-03-08T02:01:52.105Z,2.20
2023-03-08T02:04:20.998Z,2.60
2023-03-08T02:06:49.383Z,2.10
2023-03-08T02:09:21.437Z,2.60
2023-03-08T02:11:49.917Z,2.70
2023-03-08T02:14:18.091Z,2.70
2023-03-08T02:16:49.129Z,3.20
2023-03-08T02:19:22.221Z,2.80
2023-03-08T02:21:50.291Z,3.60
2023-03-08T02:24:23.173Z,3.20
2023-03-08T02:26:53.394Z,3.20
2023-03-08T02:29:21.473Z,3.10
2023-03-08T02:31:49.653Z,3.80
2023-03-08T02:34:17.911Z,3.60
2023-03-08T02:36:46.083Z,3.40
2023-03-08T02:39:14.666Z,2.80
2023-03-08T02:41:42.843Z,3.20
2023-03-08T02:44:10.945Z,2.70
2023-03-08T02:46:39.081Z,3.00
2023-03-08T02:49:07.454Z,3.20
2023-03-08T02:51:35.628Z,2.80
2023-03-08T02:54:04.213Z,3.00
2023-03-08T02:56:32.381Z,3.10
2023-03-08T02:59:00.663Z,3.00
2023-03-08T03:01:29.623Z,4.00
2023-03-08T03:03:58.033Z,3.70
2023-03-08T03:06:26.363Z,2.90
2023-03-08T03:08:57.234Z,2.70
2023-03-08T03:11:26.023Z,2.70
2023-03-08T03:13:57.059Z,2.90
2023-03-08T03:16:27.383Z,2.50
2023-03-08T03:18:56.777Z,3.00
2023-03-08T03:21:25.464Z,3.10
2023-03-08T03:23:55.391Z,2.80
2023-03-08T03:26:27.745Z,3.40
2023-03-08T03:28:58.175Z,2.90
2023-03-08T03:31:28.661Z,2.40
2023-03-08T03:33:57.080Z,2.10
2023-03-08T03:36:26.481Z,2.50
2023-03-08T03:38:55.474Z,2.10
2023-03-08T03:41:24.275Z,2.50
2023-03-08T03:44:00.826Z,2.80
2023-03-08T03:46:30.241Z,3.20
2023-03-08T03:48:59.116Z,3.00
2023-03-08T03:51:29.745Z,3.10
2023-03-08T03:54:08.056Z,3.70
2023-03-08T03:56:36.543Z,3.30
2023-03-08T03:59:05.326Z,3.00
2023-03-08T04:01:34.128Z,2.50
2023-03-08T04:04:12.730Z,2.00
2023-03-08T04:06:43.269Z,1.60
2023-03-08T04:09:15.638Z,1.60
2023-03-08T04:11:46.213Z,1.60
2023-03-08T04:14:18.014Z,1.20
2023-03-08T04:16:46.700Z,1.20
2023-03-08T04:19:21.528Z,1.40
2023-03-08T04:21:52.580Z,1.80
2023-03-08T04:24:21.561Z,1.80
2023-03-08T04:26:51.680Z,2.20
2023-03-08T04:29:20.563Z,2.60
2023-03-08T04:31:48.972Z,2.10
2023-03-08T04:34:19.368Z,2.30
2023-03-08T04:39:17.861Z,2.40
2023-03-08T04:41:46.544Z,2.50
2023-03-08T04:44:24.034Z,2.60
2023-03-08T04:46:53.960Z,2.90
2023-03-08T04:49:30.226Z,2.70
2023-03-08T04:52:01.770Z,2.90
2023-03-08T04:54:30.349Z,6.70
2023-03-08T04:57:03.385Z,7.30
2023-03-08T04:59:32.835Z,12.10
2023-03-08T05:02:04.152Z,7.30
2023-03-08T05:04:34.456Z,3.20
2023-03-08T05:07:02.885Z,3.20
2023-03-08T05:09:33.816Z,3.60
2023-03-08T05:12:03.319Z,3.90
2023-03-08T05:14:40.811Z,3.50
2023-03-08T05:17:08.980Z,4.20
2023-03-08T05:19:37.155Z,4.10
2023-03-08T05:22:06.364Z,3.80
2023-03-08T05:24:35.446Z,3.90
2023-03-08T05:27:10.066Z,3.60
2023-03-08T05:29:38.237Z,4.10
2023-03-08T05:32:07.271Z,3.70
2023-03-08T05:34:35.756Z,3.90
2023-03-08T05:37:05.111Z,4.10
2023-03-08T05:39:34.611Z,4.50
2023-03-08T05:42:13.028Z,4.40
2023-03-08T05:44:42.525Z,3.70
2023-03-08T05:47:12.004Z,4.20
2023-03-08T05:49:40.359Z,4.20
2023-03-08T05:52:08.683Z,4.60
2023-03-08T05:54:37.262Z,4.20
2023-03-08T05:57:09.749Z,3.80
2023-03-08T05:59:38.536Z,4.70
2023-03-08T06:02:06.921Z,5.80
2023-03-08T06:04:45.204Z,4.60
2023-03-08T06:07:14.300Z,4.60
2023-03-08T06:09:46.570Z,4.80
2023-03-08T06:12:16.489Z,4.60
2023-03-08T06:14:46.085Z,4.80
2023-03-08T06:17:15.282Z,4.40
2023-03-08T06:22:17.167Z,5.80
2023-03-08T06:24:49.988Z,4.20
2023-03-08T06:27:24.250Z,4.50
2023-03-08T06:29:53.449Z,5.20
2023-03-08T06:32:22.408Z,4.90
2023-03-08T06:34:51.418Z,4.80
2023-03-08T06:37:19.723Z,4.60
2023-03-08T06:39:48.602Z,5.10
2023-03-08T06:42:16.963Z,5.10
2023-03-08T06:44:45.668Z,4.60
2023-03-08T06:47:13.838Z,4.60
2023-03-08T06:49:42.534Z,4.00
2023-03-08T06:52:10.975Z,3.80
2023-03-08T06:54:39.479Z,3.80
2023-03-08T06:57:07.655Z,3.40
2023-03-08T06:59:35.722Z,4.30
2023-03-08T07:02:03.895Z,4.30
2023-03-08T07:04:32.207Z,4.60
2023-03-08T07:07:00.578Z,4.40
2023-03-08T07:09:28.918Z,4.40
2023-03-08T07:11:57.193Z,3.80
2023-03-08T07:14:25.365Z,3.90
2023-03-08T07:16:53.539Z,3.40
2023-03-08T07:19:21.913Z,3.40
2023-03-08T07:21:50.083Z,3.00
2023-03-08T07:24:18.358Z,3.60
2023-03-08T07:26:46.429Z,4.00
2023-03-08T07:29:14.600Z,4.30
2023-03-08T07:31:42.713Z,4.70
2023-03-08T07:34:11.051Z,4.60
2023-03-08T07:36:40.332Z,3.30
2023-03-08T07:39:08.428Z,3.10
2023-03-08T07:41:36.901Z,2.90
2023-03-08T07:44:05.690Z,3.00
2023-03-08T07:46:33.789Z,3.00
2023-03-08T07:49:02.029Z,2.40
2023-03-08T07:51:30.209Z,2.70
2023-03-08T07:53:58.375Z,3.20
2023-03-08T07:56:26.553Z,3.30
2023-03-08T07:58:57.485Z,3.00
2023-03-08T08:01:25.778Z,3.20
2023-03-08T08:03:53.992Z,2.80
2023-03-08T08:06:22.208Z,2.40
2023-03-08T08:08:50.383Z,2.50
2023-03-08T08:11:22.138Z,2.60
2023-03-08T08:13:50.306Z,2.70
2023-03-08T08:16:18.721Z,2.50
2023-03-08T08:18:47.061Z,2.50
2023-03-08T08:21:16.438Z,3.70
2023-03-08T08:23:45.140Z,4.00
2023-03-08T08:26:15.976Z,3.10
2023-03-08T08:28:45.218Z,3.70
2023-03-08T08:31:16.681Z,4.00
2023-03-08T08:33:44.899Z,5.30
2023-03-08T08:36:15.911Z,3.80
2023-03-08T08:38:46.261Z,4.20
2023-03-08T08:41:16.994Z,3.20
2023-03-08T08:43:46.182Z,2.70
2023-03-08T08:46:15.494Z,3.80
2023-03-08T08:48:44.278Z,4.80
2023-03-08T08:51:14.179Z,6.20
2023-03-08T08:53:44.303Z,5.50
2023-03-08T08:56:26.747Z,4.90
2023-03-08T08:58:59.600Z,4.20
2023-03-08T09:03:57.339Z,3.80
2023-03-08T09:06:27.519Z,3.80
2023-03-08T09:08:57.913Z,3.70
2023-03-08T09:11:27.743Z,4.90
2023-03-08T09:13:56.509Z,4.10
2023-03-08T09:16:27.649Z,4.10
2023-03-08T09:18:57.357Z,4.20
2023-03-08T09:21:26.740Z,4.40
2023-03-08T09:23:55.856Z,7.00
2023-03-08T09:26:24.030Z,5.30
2023-03-08T09:28:52.305Z,5.70
2023-03-08T09:31:20.540Z,5.10
2023-03-08T09:33:52.170Z,5.40
2023-03-08T09:36:21.225Z,5.10
2023-03-08T09:38:50.732Z,4.20
2023-03-08T09:41:30.986Z,3.70
2023-03-08T09:44:43.897Z,3.80
2023-03-08T09:47:15.151Z,3.70
2023-03-08T09:49:46.499Z,4.30
2023-03-08T09:52:44.059Z,4.10
2023-03-08T09:55:30.422Z,4.60
2023-03-08T09:58:23.208Z,4.70
2023-03-08T10:00:51.637Z,4.50
2023-03-08T10:04:08.426Z,4.30
2023-03-08T10:06:43.329Z,4.60
2023-03-08T10:09:25.525Z,4.60
2023-03-08T10:12:31.479Z,4.80
2023-03-08T10:15:11.570Z,5.90
2023-03-08T10:18:02.745Z,5.40
2023-03-08T10:20:41.458Z,5.20
2023-03-08T10:23:21.440Z,6.80
2023-03-08T10:25:50.899Z,5.30
2023-03-08T10:28:24.223Z,4.20
2023-03-08T10:30:56.394Z,4.20
2023-03-08T10:33:27.580Z,4.30
2023-03-08T10:36:09.718Z,5.00
2023-03-08T10:38:38.506Z,4.80
2023-03-08T10:41:16.099Z,4.50
2023-03-08T10:43:50.484Z,5.10
2023-03-08T10:46:21.929Z,5.00
2023-03-08T10:48:50.648Z,4.30
2023-03-08T10:51:23.020Z,3.70
2023-03-08T10:53:57.436Z,3.60
2023-03-08T10:56:39.442Z,3.70
2023-03-08T10:59:17.980Z,4.20
2023-03-08T11:01:51.955Z,4.70
2023-03-08T11:04:22.047Z,4.70
2023-03-08T11:06:50.656Z,4.50
2023-03-08T11:09:30.017Z,3.60
2023-03-08T11:11:59.389Z,3.30
2023-03-08T11:14:29.950Z,3.10
2023-03-08T11:17:06.280Z,3.20
2023-03-08T11:19:43.277Z,3.00
2023-03-08T11:22:49.526Z,3.00
2023-03-08T11:25:34.184Z,3.20
2023-03-08T11:28:08.464Z,2.60
2023-03-08T11:30:45.376Z,2.90
2023-03-08T11:33:32.380Z,3.30
2023-03-08T11:36:21.761Z,2.70
2023-03-08T11:39:06.620Z,3.10
2023-03-08T11:41:44.932Z,3.30
2023-03-08T11:44:27.415Z,2.80
2023-03-08T11:47:27.356Z,2.60
2023-03-08T11:50:17.240Z,2.60
2023-03-08T11:53:09.889Z,3.00
2023-03-08T11:56:02.835Z,3.40
2023-03-08T11:58:33.671Z,2.60
2023-03-08T12:01:04.582Z,3.20
2023-03-08T12:03:40.967Z,3.10
2023-03-08T12:06:29.362Z,3.20
2023-03-08T12:09:04.626Z,3.20
2023-03-08T12:11:36.408Z,3.30
2023-03-08T12:14:10.918Z,3.60
2023-03-08T12:16:45.016Z,3.30
2023-03-08T12:19:21.402Z,3.80
2023-03-08T12:21:56.645Z,3.70
2023-03-08T12:24:30.697Z,3.20
2023-03-08T12:27:04.471Z,2.60
2023-03-08T12:29:36.385Z,2.30
2023-03-08T12:32:06.198Z,2.30
2023-03-08T12:34:43.415Z,2.90
2023-03-08T12:37:39.494Z,3.00
2023-03-08T12:40:30.482Z,3.30
2023-03-08T12:43:09.270Z,2.90
2023-03-08T12:45:39.423Z,2.80
2023-03-08T12:48:07.561Z,2.60
2023-03-08T12:50:46.013Z,3.10
2023-03-08T12:53:22.458Z,2.70
2023-03-08T12:56:26.637Z,2.70
2023-03-08T12:58:57.492Z,2.70
2023-03-08T13:01:39.801Z,3.10
2023-03-08T13:04:39.675Z,3.10
2023-03-08T13:07:13.719Z,3.00
2023-03-08T13:09:41.895Z,2.80
2023-03-08T13:12:15.770Z,2.70
2023-03-08T13:14:45.094Z,3.20
2023-03-08T13:17:39.558Z,3.00
2023-03-08T13:20:48.721Z,3.90
2023-03-08T13:23:19.889Z,3.60
2023-03-08T13:25:57.068Z,3.90
2023-03-08T13:28:34.754Z,5.10
2023-03-08T13:31:16.725Z,5.00
2023-03-08T13:33:53.842Z,4.20
2023-03-08T13:36:40.194Z,3.70
2023-03-08T13:39:18.741Z,3.20
2023-03-08T13:41:48.149Z,4.20
2023-03-08T13:44:27.468Z,3.50
2023-03-08T13:46:57.889Z,4.80
2023-03-08T13:49:33.651Z,4.50
2023-03-08T13:52:04.541Z,6.00
2023-03-08T13:54:35.588Z,6.70
2023-03-08T13:57:07.206Z,6.30
2023-03-08T13:59:38.175Z,8.00
2023-03-08T14:02:30.552Z,6.40
2023-03-08T14:04:59.528Z,5.80
2023-03-08T14:07:30.894Z,6.40
2023-03-08T14:09:59.679Z,6.20
2023-03-08T14:12:31.172Z,6.40
2023-03-08T14:15:02.001Z,5.70
2023-03-08T14:17:32.317Z,5.40
2023-03-08T14:20:05.961Z,5.40
2023-03-08T14:22:39.866Z,5.00
2023-03-08T14:25:23.298Z,5.10
2023-03-08T14:27:51.908Z,5.30
2023-03-08T14:30:22.943Z,5.50
2023-03-08T14:33:20.190Z,6.00
2023-03-08T14:36:00.206Z,6.30
2023-03-08T14:38:33.123Z,6.40
2023-03-08T14:41:06.425Z,5.70
2023-03-08T14:43:34.795Z,5.50
2023-03-08T14:46:05.991Z,5.70
2023-03-08T14:48:36.228Z,5.10
2023-03-08T14:51:20.194Z,6.00
2023-03-08T14:54:00.731Z,7.00
2023-03-08T14:59:03.952Z,6.50
2023-03-08T15:01:36.772Z,6.90
2023-03-08T15:04:15.720Z,7.50
2023-03-08T15:06:47.118Z,6.80
2023-03-08T15:09:17.861Z,6.70
2023-03-08T15:11:47.329Z,6.60
2023-03-08T15:14:15.833Z,6.70
2023-03-08T15:16:44.152Z,10.40
2023-03-08T15:19:14.112Z,14.20
2023-03-08T15:21:43.116Z,36.40
2023-03-08T15:24:16.163Z,24.20
2023-03-08T15:26:45.301Z,12.70
2023-03-08T15:29:39.785Z,7.90
2023-03-08T15:32:08.502Z,8.40
2023-03-08T15:34:36.634Z,8.00
2023-03-08T15:37:05.138Z,7.50
2023-03-08T15:39:33.674Z,7.70
2023-03-08T15:42:01.881Z,9.70
2023-03-08T15:44:30.148Z,9.90
2023-03-08T15:46:58.339Z,11.80
2023-03-08T15:49:26.586Z,11.80
2023-03-08T15:51:55.050Z,8.10
2023-03-08T15:54:23.236Z,9.90
2023-03-08T15:56:51.408Z,10.80
2023-03-08T15:59:19.581Z,17.50
2023-03-08T16:01:47.780Z,12.80
2023-03-08T16:04:15.924Z,13.20
2023-03-08T16:06:44.308Z,10.00
2023-03-08T16:09:12.478Z,10.80
2023-03-08T16:11:40.670Z,10.60
2023-03-08T16:14:08.900Z,10.60
2023-03-08T16:16:45.311Z,11.10
2023-03-08T16:19:14.184Z,10.90
2023-03-08T16:21:42.269Z,10.70
2023-03-08T16:24:11.585Z,11.60
2023-03-08T16:26:39.723Z,11.20
2023-03-08T16:29:09.012Z,12.10
2023-03-08T16:31:37.368Z,12.80
2023-03-08T16:34:06.498Z,13.60
2023-03-08T16:36:34.676Z,13.50
2023-03-08T16:39:04.273Z,12.70
2023-03-08T16:41:36.470Z,14.80
2023-03-08T16:44:05.645Z,13.80
2023-03-08T16:46:34.117Z,13.80
2023-03-08T16:49:03.396Z,14.20
2023-03-08T16:51:31.665Z,14.30
2023-03-08T16:53:59.855Z,14.70
2023-03-08T16:56:29.263Z,15.50
2023-03-08T16:58:59.391Z,14.90
2023-03-08T17:01:28.488Z,16.50
2023-03-08T17:03:57.356Z,16.60
2023-03-08T17:06:28.169Z,16.50
2023-03-08T17:09:00.049Z,15.90
2023-03-08T17:11:31.479Z,16.50
2023-03-08T17:14:01.636Z,16.40
2023-03-08T17:16:31.324Z,17.20
2023-03-08T17:19:04.685Z,17.70
2023-03-08T17:21:38.255Z,18.00
2023-03-08T17:24:08.233Z,19.50
2023-03-08T17:26:41.814Z,19.30
2023-03-08T17:29:10.104Z,20.30
2023-03-08T17:31:40.870Z,19.30
2023-03-08T17:34:09.519Z,18.70
2023-03-08T17:36:38.219Z,19.40
2023-03-08T17:39:06.693Z,18.70
2023-03-08T17:41:35.900Z,19.50
2023-03-08T17:44:04.361Z,18.60
2023-03-08T17:46:32.919Z,18.20
2023-03-08T17:49:01.117Z,18.80
2023-03-08T17:51:30.825Z,20.50
2023-03-08T17:54:01.168Z,19.80
2023-03-08T17:59:00.590Z,19.40
2023-03-08T18:01:30.883Z,20.10
2023-03-08T18:04:00.101Z,18.40
2023-03-08T18:06:38.008Z,21.00
2023-03-08T18:09:08.928Z,18.40
2023-03-08T18:11:40.066Z,17.30
2023-03-08T18:14:10.742Z,18.50
2023-03-08T18:19:07.761Z,18.90
2023-03-08T18:21:37.242Z,19.30
2023-03-08T18:24:07.173Z,18.80
2023-03-08T18:26:35.355Z,19.30
2023-03-08T18:29:03.636Z,18.40
2023-03-08T18:31:35.236Z,18.90
2023-03-08T18:34:03.446Z,18.40
2023-03-08T18:36:31.818Z,18.00
2023-03-08T18:38:59.990Z,17.70
2023-03-08T18:41:29.813Z,17.20
2023-03-08T18:43:59.308Z,18.30
2023-03-08T18:46:29.892Z,19.50
2023-03-08T18:51:28.546Z,19.00
2023-03-08T18:53:58.030Z,18.70
2023-03-08T18:56:27.023Z,19.30
2023-03-08T18:58:57.279Z,19.20
2023-03-08T19:01:26.364Z,19.10
2023-03-08T19:03:54.541Z,19.90
2023-03-08T19:06:22.691Z,19.30
2023-03-08T19:08:50.856Z,17.60
2023-03-08T19:11:21.900Z,19.40
2023-03-08T19:13:50.373Z,21.30
2023-03-08T19:16:27.957Z,22.10
2023-03-08T19:18:59.230Z,20.80
2023-03-08T19:21:29.966Z,20.40
2023-03-08T19:23:59.045Z,20.50
2023-03-08T19:26:39.188Z,21.40
2023-03-08T19:29:18.936Z,22.80
2023-03-08T19:32:01.775Z,19.40
2023-03-08T19:34:33.226Z,19.40
2023-03-08T19:37:02.339Z,18.00
2023-03-08T19:39:32.931Z,19.50
2023-03-08T19:44:31.528Z,20.90
2023-03-08T19:47:01.131Z,19.30
2023-03-08T19:49:32.471Z,19.30
2023-03-08T19:52:02.773Z,19.50
2023-03-08T19:54:31.894Z,18.10
2023-03-08T19:57:01.213Z,18.90
2023-03-08T19:59:29.468Z,20.80
2023-03-08T20:01:58.259Z,21.20
2023-03-08T20:04:26.431Z,20.40
2023-03-08T20:06:54.599Z,24.30
2023-03-08T20:09:22.984Z,22.50
2023-03-08T20:11:57.603Z,23.90
2023-03-08T20:14:27.873Z,21.70
2023-03-08T20:16:56.715Z,23.00
2023-03-08T20:19:25.194Z,23.80
2023-03-08T20:21:53.481Z,24.30
2023-03-08T20:24:23.508Z,22.50
2023-03-08T20:26:51.975Z,23.80
2023-03-08T20:29:20.230Z,24.30
2023-03-08T20:31:48.715Z,24.70
2023-03-08T20:34:17.503Z,25.20
2023-03-08T20:36:45.673Z,28.60
2023-03-08T20:39:13.948Z,28.60
2023-03-08T20:41:42.136Z,26.60
2023-03-08T20:44:11.517Z,25.60
2023-03-08T20:46:39.703Z,24.40
2023-03-08T20:49:07.965Z,24.30
2023-03-08T20:51:36.557Z,24.10
2023-03-08T20:54:06.365Z,22.70
2023-03-08T20:56:34.751Z,23.00
2023-03-08T20:59:02.909Z,24.10
2023-03-08T21:01:33.292Z,22.50
2023-03-08T21:04:01.610Z,24.30
2023-03-08T21:06:31.628Z,23.60
2023-03-08T21:09:00.514Z,23.50
2023-03-08T21:11:29.008Z,22.30
2023-03-08T21:13:57.164Z,22.10
2023-03-08T21:16:27.692Z,21.60
2023-03-08T21:18:58.286Z,21.10
2023-03-08T21:24:01.504Z,20.90
2023-03-08T21:29:03.355Z,22.40
2023-03-08T21:31:33.704Z,22.80
2023-03-08T21:34:03.133Z,25.10
2023-03-08T21:36:31.801Z,24.70
2023-03-08T21:39:00.496Z,21.40
2023-03-08T21:41:32.032Z,21.90
2023-03-08T21:44:02.466Z,22.10
2023-03-08T21:46:30.614Z,21.70
2023-03-08T21:48:58.803Z,20.90
2023-03-08T21:51:26.975Z,22.20
2023-03-08T21:53:57.278Z,22.70
2023-03-08T21:56:25.475Z,22.40
2023-03-08T21:58:53.646Z,25.90
2023-03-08T22:01:24.286Z,26.20
2023-03-08T22:03:52.750Z,26.60
2023-03-08T22:06:21.439Z,26.20
2023-03-08T22:08:49.917Z,27.00
2023-03-08T22:11:19.522Z,27.50
2023-03-08T22:13:52.325Z,26.30
2023-03-08T22:16:21.150Z,24.60
2023-03-08T22:18:52.829Z,26.80
2023-03-08T22:21:21.224Z,26.50
2023-03-08T22:23:55.592Z,28.20
2023-03-08T22:26:25.049Z,28.50
2023-03-08T22:28:54.368Z,29.50
2023-03-08T22:31:24.590Z,30.20
2023-03-08T22:33:52.732Z,28.70
2023-03-08T22:36:21.828Z,29.80
2023-03-08T22:38:50.106Z,28.30
2023-03-08T22:41:21.458Z,27.70
2023-03-08T22:43:50.048Z,28.60
2023-03-08T22:46:21.663Z,28.50
2023-03-08T22:48:50.578Z,29.40
2023-03-08T22:51:20.385Z,28.50
2023-03-08T22:53:48.764Z,29.70
2023-03-08T22:56:25.339Z,31.40
2023-03-08T22:58:53.706Z,31.90
2023-03-08T23:01:23.099Z,28.80
2023-03-08T23:03:55.229Z,29.80
2023-03-08T23:06:24.896Z,32.10
2023-03-08T23:08:53.055Z,32.40
2023-03-08T23:11:21.230Z,31.00
2023-03-08T23:13:49.600Z,28.90
2023-03-08T23:16:18.012Z,29.60
2023-03-08T23:18:49.201Z,30.20
2023-03-08T23:21:19.845Z,30.80
2023-03-08T23:26:21.158Z,29.90
2023-03-08T23:28:49.604Z,29.20
2023-03-08T23:31:20.961Z,30.20
2023-03-08T23:33:50.148Z,28.30
2023-03-08T23:36:22.074Z,29.50
2023-03-08T23:38:50.987Z,27.40
2023-03-08T23:41:19.872Z,28.30
2023-03-08T23:43:48.147Z,27.90
2023-03-08T23:46:18.618Z,30.60
2023-03-08T23:48:47.784Z,31.10
2023-03-08T23:51:18.621Z,32.10
2023-03-08T23:53:52.205Z,32.20
2023-03-08T23:56:31.107Z,30.70
2023-03-08T23:59:04.371Z,31.70
